Time;durP1;ratioP1;P1;durP2;ratioP2;P2;SDS_P1;SDS_P2;PMS_P1;PMS_P2;Temp;Humidity;BMP_temperature;BMP_pressure;BME280_temperature;BME280_humidity;BME280_pressure;Samples;Min_cycle;Max_cycle;Signal;HPM_P1;HPM_P2
2022/09/05 00:01:49;;;;;;;16.33;14.77;;;;;;;16.93;99.26;93436.59;5083534;28;20246;-71
2022/09/05 00:04:26;;;;;;;14.50;13.50;;;;;;;16.88;99.36;93426.94;5070903;28;20225;-70
2022/09/05 00:07:15;;;;;;;14.33;13.13;;;;;;;16.88;100.00;93432.22;5070767;28;20181;-71
2022/09/05 00:10:14;;;;;;;14.03;12.93;;;;;;;16.81;99.99;93426.53;5070405;28;20234;-70
2022/09/05 00:12:41;;;;;;;13.50;12.50;;;;;;;16.69;100.00;93426.28;5071130;28;20201;-69
2022/09/05 00:15:28;;;;;;;15.40;14.10;;;;;;;16.66;100.00;93434.00;5069689;28;20213;-71
2022/09/05 00:18:02;;;;;;;15.30;14.07;;;;;;;16.73;100.00;93435.16;5070927;28;20178;-70
2022/09/05 00:20:40;;;;;;;15.07;13.57;;;;;;;16.71;100.00;93437.31;5074821;28;20231;-71
2022/09/05 00:23:25;;;;;;;14.80;13.70;;;;;;;16.75;100.00;93440.91;5070807;28;20174;-71
2022/09/05 00:26:18;;;;;;;18.37;14.43;;;;;;;16.74;99.99;93439.38;5069981;28;20217;-71
2022/09/05 00:29:03;;;;;;;15.30;13.90;;;;;;;16.72;100.00;93438.88;5070172;28;20186;-71
2022/09/05 00:31:40;;;;;;;14.67;13.47;;;;;;;16.70;99.68;93443.66;5070885;28;20208;-70
2022/09/05 00:34:11;;;;;;;16.20;14.70;;;;;;;16.70;99.26;93432.34;5082809;28;20248;-70
2022/09/05 00:36:42;;;;;;;15.90;14.60;;;;;;;16.68;98.84;93432.63;5090412;28;20184;-71
2022/09/05 00:39:34;;;;;;;16.30;14.70;;;;;;;16.43;99.10;93414.66;5090312;28;20232;-71
2022/09/05 00:42:12;;;;;;;17.80;16.03;;;;;;;16.54;99.76;93441.63;5090055;28;20185;-71
2022/09/05 00:44:50;;;;;;;17.87;16.07;;;;;;;16.52;100.00;93449.84;5090203;28;20209;-71
2022/09/05 00:47:33;;;;;;;17.03;15.57;;;;;;;16.12;100.00;93413.69;5075094;28;20193;-71
2022/09/05 00:50:05;;;;;;;17.57;16.07;;;;;;;16.52;99.98;93447.19;5070131;28;20349;-70
2022/09/05 00:52:49;;;;;;;17.83;16.27;;;;;;;16.48;100.00;93443.59;5086474;28;20173;-71
2022/09/05 00:55:27;;;;;;;18.00;16.50;;;;;;;16.34;100.00;93434.88;5090182;28;20228;-70
2022/09/05 00:58:04;;;;;;;17.33;15.57;;;;;;;16.39;100.00;93442.66;5090136;28;20189;-70
2022/09/05 01:00:52;;;;;;;18.10;16.57;;;;;;;16.46;100.00;93455.50;5089860;28;20224;-70
2022/09/05 01:03:32;;;;;;;17.97;16.37;;;;;;;16.48;100.00;93450.72;5070362;28;20208;-70
2022/09/05 01:06:14;;;;;;;18.33;16.80;;;;;;;16.45;100.00;93453.94;5069906;28;20200;-71
2022/09/05 01:09:19;;;;;;;18.33;16.83;;;;;;;16.32;100.00;93455.47;5069585;28;20203;-71
2022/09/05 01:12:03;;;;;;;19.10;17.40;;;;;;;16.33;100.00;93451.75;5072246;28;20192;-70
2022/09/05 01:14:47;;;;;;;18.57;16.87;;;;;;;16.36;100.00;93450.41;5089991;28;20260;-70
2022/09/05 01:17:37;;;;;;;17.83;16.13;;;;;;;16.37;100.00;93463.28;5078626;28;20209;-71
2022/09/05 01:20:29;;;;;;;18.73;17.13;;;;;;;16.32;100.00;93467.84;5089722;28;20236;-70
2022/09/05 01:23:16;;;;;;;19.67;17.87;;;;;;;16.29;100.00;93466.59;5070107;28;20192;-71
2022/09/05 01:25:57;;;;;;;19.23;17.57;;;;;;;16.32;99.29;93465.22;5069528;28;20225;-70
2022/09/05 01:28:24;;;;;;;19.10;17.30;;;;;;;16.32;99.83;93463.38;5074065;28;20181;-70
2022/09/05 01:31:16;;;;;;;18.10;16.60;;;;;;;16.25;100.00;93465.59;5073885;28;20225;-72
2022/09/05 01:33:53;;;;;;;18.00;16.50;;;;;;;16.24;100.00;93461.41;5082661;28;20245;-72
2022/09/05 01:36:27;;;;;;;18.40;16.63;;;;;;;16.25;100.00;93459.56;5093905;28;20205;-70
2022/09/05 01:39:03;;;;;;;18.63;16.93;;;;;;;16.28;100.00;93443.94;5093638;28;20235;-70
2022/09/05 01:41:44;;;;;;;18.27;16.43;;;;;;;16.40;98.39;93452.16;5086028;28;20220;-71
2022/09/05 01:44:35;;;;;;;17.33;15.77;;;;;;;16.38;98.50;93448.22;5093438;28;20229;-71
2022/09/05 01:47:15;;;;;;;19.13;17.53;;;;;;;16.38;98.04;93450.88;5092945;28;20185;-70
2022/09/05 01:49:57;;;;;;;18.00;16.30;;;;;;;16.32;98.49;93444.94;5093383;28;20272;-71
2022/09/05 01:52:25;;;;;;;16.80;15.47;;;;;;;16.35;99.71;93454.09;5093791;28;20185;-70
2022/09/05 01:55:13;;;;;;;18.20;16.30;;;;;;;16.37;98.32;93452.75;5093331;28;20243;-70
2022/09/05 01:58:00;;;;;;;19.27;17.57;;;;;;;16.49;98.35;93450.41;5076113;28;20241;-70
2022/09/05 02:00:54;;;;;;;17.90;16.40;;;;;;;16.46;97.41;93456.28;5073136;28;20296;-71
2022/09/05 02:03:41;;;;;;;16.57;15.13;;;;;;;16.32;98.25;93426.47;5073595;28;20185;-70
2022/09/05 02:06:33;;;;;;;18.43;16.50;;;;;;;16.29;100.00;93448.16;5078000;28;20248;-70
2022/09/05 02:09:11;;;;;;;19.10;17.23;;;;;;;16.10;100.00;93450.09;5093058;28;20243;-70
2022/09/05 02:12:19;;;;;;;18.17;16.67;;;;;;;16.26;99.32;93455.84;5091717;28;20212;-71
2022/09/05 02:15:20;;;;;;;19.17;17.30;;;;;;;16.21;100.00;93446.19;5069330;28;20237;-72
2022/09/05 02:17:56;;;;;;;19.57;17.67;;;;;;;15.99;100.00;93448.69;5085083;28;20283;-71
2022/09/05 02:20:33;;;;;;;18.67;16.87;;;;;;;16.05;100.00;93439.63;5092828;28;20228;-70
2022/09/05 02:23:09;;;;;;;19.77;18.00;;;;;;;16.16;100.00;93448.91;5092685;28;20176;-72
2022/09/05 02:25:40;;;;;;;20.20;18.27;;;;;;;16.15;100.00;93449.22;5092389;28;20261;-69
2022/09/05 02:28:33;;;;;;;19.03;17.30;;;;;;;16.14;100.00;93447.66;5072749;28;20182;-72
2022/09/05 02:31:08;;;;;;;19.80;17.97;;;;;;;16.35;99.29;93446.97;5072891;28;20253;-71
2022/09/05 02:33:51;;;;;;;20.87;18.77;;;;;;;16.29;100.00;93455.25;5080532;28;20183;-72
2022/09/05 02:36:30;;;;;;;20.27;18.23;;;;;;;16.43;99.37;93459.47;5092740;28;20180;-70
2022/09/05 02:39:25;;;;;;;18.47;16.97;;;;;;;16.63;94.48;93461.75;5091647;28;20232;-72
2022/09/05 02:42:03;;;;;;;17.60;15.90;;;;;;;16.34;96.28;93437.53;5082654;28;20218;-70
2022/09/05 02:44:53;;;;;;;17.27;15.70;;;;;;;16.35;97.67;93449.63;5092378;28;20228;-70
2022/09/05 02:47:45;;;;;;;16.80;15.40;;;;;;;16.02;100.00;93434.94;5091984;28;20180;-71
2022/09/05 02:50:32;;;;;;;17.23;15.47;;;;;;;16.17;100.00;93458.41;5092047;28;20266;-70
2022/09/05 02:52:59;;;;;;;18.13;16.50;;;;;;;16.21;100.00;93453.31;5087572;28;20208;-71
2022/09/05 02:55:24;;;;;;;16.63;15.27;;;;;;;16.26;100.00;93456.66;5072056;28;20248;-72
2022/09/05 02:58:05;;;;;;;17.53;15.83;;;;;;;16.03;100.00;93441.78;5072377;28;20320;-71
2022/09/05 03:01:02;;;;;;;18.27;16.57;;;;;;;16.00;100.00;93434.44;5071679;28;20230;-70
2022/09/05 03:03:47;;;;;;;18.03;16.33;;;;;;;16.20;100.00;93460.44;5069654;28;20189;-71
2022/09/05 03:06:53;;;;;;;19.03;17.33;;;;;;;16.24;100.00;93463.25;5077499;28;20236;-70
2022/09/05 03:09:46;;;;;;;18.30;16.60;;;;;;;16.07;100.00;93416.41;5091512;28;20216;-71
2022/09/05 03:12:23;;;;;;;19.60;17.80;;;;;;;16.17;100.00;93447.84;5085662;28;20212;-71
2022/09/05 03:15:12;;;;;;;18.93;17.13;;;;;;;16.35;100.00;93470.69;5090970;28;20226;-71
2022/09/05 03:17:46;;;;;;;15.93;14.53;;;;;;;16.46;97.22;93464.19;5060536;28;20212;-71
2022/09/05 03:20:50;;;;;;;15.37;14.17;;;;;;;16.28;98.60;93462.38;5091305;28;20284;-70
2022/09/05 03:23:21;;;;;;;16.10;14.70;;;;;;;16.18;99.10;93470.50;5071955;28;20192;-71
2022/09/05 03:26:19;;;;;;;18.43;16.93;;;;;;;16.18;99.86;93467.84;5073385;28;20297;-71
2022/09/05 03:28:57;;;;;;;16.73;15.03;;;;;;;16.23;99.20;93472.25;5073858;28;20228;-71
2022/09/05 03:32:00;;;;;;;15.90;14.60;;;;;;;16.23;98.65;93477.50;5084710;28;20407;-69
2022/09/05 03:34:47;;;;;;;16.43;15.13;;;;;;;16.27;98.80;93478.47;5086335;28;20232;-70
2022/09/05 03:37:28;;;;;;;17.57;16.07;;;;;;;16.13;100.00;93481.13;5090853;28;20188;-70
2022/09/05 03:40:12;;;;;;;19.30;17.30;;;;;;;16.20;99.87;93476.25;5091110;28;20224;-70
2022/09/05 03:42:44;;;;;;;18.77;16.97;;;;;;;16.01;100.00;93478.16;5081237;28;20197;-70
2022/09/05 03:45:36;;;;;;;18.50;16.87;;;;;;;15.95;100.00;93485.38;5090856;28;20232;-71
2022/09/05 03:48:19;;;;;;;19.57;17.77;;;;;;;16.03;100.00;93486.56;5091429;28;20181;-71
2022/09/05 03:50:54;;;;;;;20.60;18.60;;;;;;;16.09;99.50;93486.16;5088172;28;20239;-69
2022/09/05 03:53:25;;;;;;;18.73;16.93;;;;;;;16.02;98.74;93492.91;5071304;28;20185;-71
2022/09/05 03:56:06;;;;;;;19.07;17.23;;;;;;;16.14;98.74;93490.56;5070633;28;20899;-71
2022/09/05 03:58:50;;;;;;;18.77;17.13;;;;;;;16.19;98.54;93495.00;5070445;28;20176;-71
2022/09/05 04:01:39;;;;;;;17.67;16.17;;;;;;;16.18;97.24;93496.84;5070078;28;20212;-71
2022/09/05 04:04:21;;;;;;;18.43;16.73;;;;;;;16.01;97.20;93478.16;5070341;28;20241;-70
2022/09/05 04:07:00;;;;;;;17.73;16.10;;;;;;;16.00;97.67;93484.50;5081030;28;20184;-71
2022/09/05 04:09:31;;;;;;;16.20;14.80;;;;;;;16.26;97.34;93511.97;5090585;28;20231;-70
2022/09/05 04:12:08;;;;;;;16.47;15.10;;;;;;;16.27;97.42;93510.09;5078982;28;20317;-73
2022/09/05 04:14:49;;;;;;;17.10;15.53;;;;;;;16.14;98.37;93501.09;5070444;28;20260;-70
2022/09/05 04:17:35;;;;;;;17.03;15.30;;;;;;;16.26;97.16;93513.81;5071014;28;20227;-71
2022/09/05 04:20:03;;;;;;;16.93;15.53;;;;;;;16.24;97.24;93515.97;5070449;28;20374;-70
2022/09/05 04:22:37;;;;;;;16.73;15.40;;;;;;;16.16;97.10;93514.00;5087097;28;20231;-71
2022/09/05 04:25:22;;;;;;;16.00;14.50;;;;;;;16.22;96.74;93515.50;5090110;28;20224;-70
2022/09/05 04:27:59;;;;;;;16.80;15.20;;;;;;;16.26;96.61;93517.25;5071906;28;20196;-70
2022/09/05 04:30:41;;;;;;;15.73;14.33;;;;;;;16.27;97.37;93525.91;5070221;28;20235;-71
2022/09/05 04:33:15;;;;;;;17.13;15.43;;;;;;;16.48;96.17;93530.59;5075129;28;20175;-71
2022/09/05 04:35:55;;;;;;;16.13;14.73;;;;;;;16.38;96.56;93536.00;5089743;28;20213;-71
2022/09/05 04:38:39;;;;;;;17.90;15.73;;;;;;;16.43;98.09;93537.75;5090487;28;20168;-70
2022/09/05 04:41:22;;;;;;;19.10;17.20;;;;;;;16.58;97.86;93535.66;5089911;28;20249;-70
2022/09/05 04:43:56;;;;;;;16.60;15.00;;;;;;;16.66;97.26;93545.53;5072030;28;20190;-70
2022/09/05 04:46:46;;;;;;;15.77;14.47;;;;;;;16.62;94.67;93544.56;5076947;28;20185;-70
2022/09/05 04:49:32;;;;;;;15.83;14.40;;;;;;;16.79;90.22;93552.69;5089873;28;20232;-70
2022/09/05 04:52:32;;;;;;;16.50;15.17;;;;;;;17.04;89.32;93561.94;5089853;28;20794;-71
2022/09/05 04:55:07;;;;;;;16.50;15.13;;;;;;;16.94;88.83;93541.03;5089584;28;20228;-71
2022/09/05 04:57:53;;;;;;;15.53;14.33;;;;;;;17.16;88.98;93568.28;5073201;28;20180;-70
2022/09/05 05:00:31;;;;;;;16.73;14.73;;;;;;;17.18;91.00;93574.03;5069688;28;20237;-70
2022/09/05 05:03:01;;;;;;;16.63;14.83;;;;;;;17.13;90.78;93555.69;5089381;28;20193;-70
2022/09/05 05:05:49;;;;;;;16.00;14.63;;;;;;;17.46;87.79;93580.88;5089758;28;20225;-71
2022/09/05 05:08:28;;;;;;;15.30;14.00;;;;;;;17.41;87.43;93570.41;5070167;28;20193;-71
2022/09/05 05:11:17;;;;;;;14.50;13.30;;;;;;;17.60;85.55;93584.25;5084543;28;20237;-70
2022/09/05 05:14:06;;;;;;;14.13;12.97;;;;;;;17.59;84.81;93590.63;5069397;28;20190;-70
2022/09/05 05:16:39;;;;;;;14.50;13.10;;;;;;;17.16;89.52;93584.13;5069097;28;20197;-71
2022/09/05 05:19:18;;;;;;;14.00;12.90;;;;;;;17.44;89.12;93598.88;5069423;28;20221;-70
2022/09/05 05:21:50;;;;;;;14.53;13.43;;;;;;;17.59;85.40;93601.19;5070249;28;20213;-69
2022/09/05 05:24:42;;;;;;;13.07;12.00;;;;;;;17.66;83.85;93592.06;5069488;28;20225;-70
2022/09/05 05:27:23;;;;;;;14.90;13.50;;;;;;;17.53;84.85;93599.75;5082916;28;20181;-70
2022/09/05 05:29:56;;;;;;;13.87;12.87;;;;;;;17.56;85.12;93607.06;5090068;28;20225;-70
2022/09/05 05:32:31;;;;;;;12.80;11.90;;;;;;;17.63;84.94;93606.66;5089595;28;20213;-70
2022/09/05 05:35:06;;;;;;;15.50;14.17;;;;;;;17.48;84.65;93615.69;5089190;28;20232;-70
2022/09/05 05:37:40;;;;;;;13.90;12.67;;;;;;;17.43;84.35;93586.72;5089775;28;20193;-70
2022/09/05 05:40:09;;;;;;;14.00;12.90;;;;;;;17.73;84.21;93610.97;5089400;28;20232;-70
2022/09/05 05:42:39;;;;;;;13.70;12.70;;;;;;;17.77;83.82;93602.13;5082661;28;20197;-69
2022/09/05 05:45:27;;;;;;;13.70;12.50;;;;;;;17.82;83.33;93603.88;5068910;28;20249;-70
2022/09/05 05:48:01;;;;;;;13.43;12.37;;;;;;;18.05;80.98;93592.25;5088685;28;20287;-70
2022/09/05 05:50:41;;;;;;;12.90;11.90;;;;;;;18.28;80.59;93622.88;5089095;28;20280;-70
2022/09/05 05:53:27;;;;;;;13.40;12.50;;;;;;;18.32;80.30;93619.34;5069813;28;20201;-71
2022/09/05 05:55:56;;;;;;;14.07;12.77;;;;;;;18.31;80.54;93624.94;5068932;28;20294;-72
2022/09/05 05:58:49;;;;;;;13.83;12.83;;;;;;;18.31;80.18;93617.78;5071370;28;20178;-70
2022/09/05 06:01:35;;;;;;;13.27;12.30;;;;;;;18.07;84.02;93624.44;5083506;28;20226;-70
2022/09/05 06:04:40;;;;;;;14.63;13.43;;;;;;;18.25;79.80;93620.84;5068708;28;20218;-70
2022/09/05 06:07:45;;;;;;;13.70;12.60;;;;;;;18.06;81.57;93588.50;5068054;28;20197;-70
2022/09/05 06:10:19;;;;;;;12.57;11.67;;;;;;;18.42;81.36;93624.41;5019169;28;20238;-70
2022/09/05 06:13:15;;;;;;;12.30;11.50;;;;;;;18.49;79.74;93624.75;5016588;28;20251;-71
2022/09/05 06:16:15;;;;;;;11.37;10.57;;;;;;;18.85;75.17;93633.38;5056375;28;20249;-71
2022/09/05 06:19:01;;;;;;;11.00;10.27;;;;;;;18.74;75.67;93634.72;5071805;28;20209;-71
2022/09/05 06:21:54;;;;;;;10.13;9.53;;;;;;;18.69;74.12;93626.91;5073319;28;20201;-70
2022/09/05 06:25:08;;;;;;;11.10;10.27;;;;;;;18.78;75.97;93637.53;5072813;28;20281;-70
2022/09/05 06:27:51;;;;;;;11.20;10.20;;;;;;;19.24;72.75;93635.25;5052946;28;20198;-70
2022/09/05 06:30:20;;;;;;;10.53;9.77;;;;;;;19.24;73.06;93639.78;5072678;28;20234;-70
2022/09/05 06:32:56;;;;;;;9.40;8.90;;;;;;;19.24;71.76;93637.13;5091183;28;20177;-70
2022/09/05 06:35:52;;;;;;;9.10;8.50;;;;;;;19.09;72.45;93638.31;5092212;28;20273;-69
2022/09/05 06:38:42;;;;;;;9.37;8.77;;;;;;;19.14;72.06;93646.13;5072032;28;20200;-70
2022/09/05 06:41:24;;;;;;;9.57;8.97;;;;;;;19.36;68.77;93653.25;5077234;28;20223;-71
2022/09/05 06:44:01;;;;;;;10.37;9.67;;;;;;;19.13;70.14;93653.28;5092289;28;20231;-70
2022/09/05 06:46:37;;;;;;;10.23;9.37;;;;;;;19.11;71.28;93659.97;5092335;28;20195;-70
2022/09/05 06:49:16;;;;;;;9.90;9.40;;;;;;;19.29;69.92;93659.00;5092242;28;20255;-71
2022/09/05 06:52:00;;;;;;;9.77;9.17;;;;;;;19.48;72.04;93662.19;5092711;28;20190;-69
2022/09/05 06:54:38;;;;;;;10.47;9.63;;;;;;;19.95;66.87;93636.69;5091770;28;20234;-71
2022/09/05 06:57:10;;;;;;;10.17;9.57;;;;;;;20.27;67.81;93668.09;5079564;28;20197;-70
2022/09/05 07:00:03;;;;;;;11.13;10.20;;;;;;;20.26;66.05;93667.34;5070898;28;20241;-70
2022/09/05 07:02:38;;;;;;;10.05;9.18;;;;;;;20.01;66.44;93662.75;5072444;28;20213;-70
2022/09/05 07:05:07;;;;;;;10.57;9.87;;;;;;;19.81;69.36;93658.06;5072246;28;20232;-72
2022/09/05 07:07:44;;;;;;;10.83;9.90;;;;;;;20.09;66.45;93662.00;5091985;28;20188;-71
2022/09/05 07:10:32;;;;;;;10.47;9.77;;;;;;;20.19;67.03;93667.00;5091667;28;20231;-70
2022/09/05 07:13:22;;;;;;;11.75;10.80;;;;;;;20.28;65.71;93659.81;5079479;28;20180;-69
2022/09/05 07:15:47;;;;;;;10.97;10.27;;;;;;;20.11;68.36;93664.34;5073542;28;20266;-71
2022/09/05 07:18:30;;;;;;;11.07;9.97;;;;;;;19.90;67.16;93645.59;5091223;28;20192;-70
2022/09/05 07:21:04;;;;;;;11.87;10.80;;;;;;;19.52;68.54;93633.97;5087962;28;20947;-71
2022/09/05 07:23:39;;;;;;;11.10;10.40;;;;;;;19.50;68.64;93654.72;5071985;28;20260;-71
2022/09/05 07:26:08;;;;;;;12.00;9.77;;;;;;;19.35;68.71;93663.06;5071499;28;20175;-71
2022/09/05 07:28:35;;;;;;;10.43;9.73;;;;;;;19.33;68.29;93625.50;5071360;28;20245;-71
2022/09/05 07:31:13;;;;;;;13.90;12.30;;;;;;;19.86;66.72;93662.44;5071501;28;20165;-70
2022/09/05 07:33:41;;;;;;;13.07;11.87;;;;;;;19.79;66.92;93651.47;5080085;28;20204;-70
2022/09/05 07:36:18;;;;;;;11.20;10.20;;;;;;;19.10;67.34;93613.41;5091243;28;20201;-71
2022/09/05 07:38:49;;;;;;;10.63;9.90;;;;;;;18.87;69.02;93627.78;5090166;28;20205;-70
2022/09/05 07:41:23;;;;;;;10.87;10.10;;;;;;;18.70;71.48;93640.91;5091304;28;20237;-71
2022/09/05 07:44:03;;;;;;;11.70;10.80;;;;;;;18.58;71.75;93632.78;5090735;28;20365;-70
2022/09/05 07:46:36;;;;;;;11.97;10.90;;;;;;;18.59;68.98;93613.94;5091234;28;20550;-70
2022/09/05 07:49:06;;;;;;;10.53;9.83;;;;;;;18.84;68.26;93625.75;5090810;28;20217;-71
2022/09/05 07:51:34;;;;;;;9.73;9.13;;;;;;;19.03;67.79;93642.97;5090404;28;20191;-70
2022/09/05 07:54:17;;;;;;;10.67;10.03;;;;;;;19.14;68.22;93641.59;5090955;28;20245;-70
2022/09/05 07:56:56;;;;;;;11.50;10.20;;;;;;;19.26;69.54;93643.69;5090749;28;20171;-71
2022/09/05 07:59:25;;;;;;;10.53;9.83;;;;;;;19.57;66.48;93638.34;5090801;28;20254;-70
2022/09/05 08:01:53;;;;;;;9.53;9.03;;;;;;;19.63;67.14;93645.84;5080569;28;20264;-70
2022/09/05 08:04:30;;;;;;;9.60;9.00;;;;;;;19.21;68.99;93638.50;5071013;28;20238;-71
2022/09/05 08:06:59;;;;;;;9.83;9.23;;;;;;;19.35;66.62;93647.16;5082346;28;20216;-71
2022/09/05 08:09:32;;;;;;;10.03;9.33;;;;;;;19.07;66.95;93643.13;5090617;28;20230;-70
2022/09/05 08:12:02;;;;;;;10.33;9.73;;;;;;;19.21;65.91;93633.22;5086454;28;20187;-71
2022/09/05 08:14:47;;;;;;;10.57;9.87;;;;;;;19.17;70.00;93646.28;5070928;28;20228;-71
2022/09/05 08:17:18;;;;;;;9.07;8.57;;;;;;;19.27;65.18;93644.47;5084547;28;20199;-70
2022/09/05 08:20:01;;;;;;;9.30;8.80;;;;;;;19.35;64.13;93647.16;5090270;28;20291;-70
2022/09/05 08:22:33;;;;;;;9.67;8.97;;;;;;;19.52;64.86;93655.16;5075588;28;20196;-70
2022/09/05 08:25:07;;;;;;;9.63;9.07;;;;;;;19.74;62.63;93659.56;5070483;28;20230;-70
2022/09/05 08:28:24;;;;;;;10.13;9.43;;;;;;;19.79;64.60;93657.56;5070548;28;20187;-71
2022/09/05 08:31:03;;;;;;;10.13;9.33;;;;;;;20.27;62.16;93658.28;5030227;28;20236;-71
2022/09/05 08:33:36;;;;;;;8.47;7.97;;;;;;;20.73;58.55;93654.16;5089994;28;20186;-75
2022/09/05 08:36:25;;;;;;;8.63;8.03;;;;;;;21.00;57.64;93651.94;5085882;28;20184;-71
2022/09/05 08:38:51;;;;;;;8.55;8.07;;;;;;;20.76;57.43;93654.34;5070123;28;20297;-71
2022/09/05 08:41:29;;;;;;;8.45;7.95;;;;;;;20.78;57.71;93641.50;5070674;28;20210;-70
2022/09/05 08:44:16;;;;;;;9.40;8.80;;;;;;;21.34;57.40;93653.72;5069251;28;20232;-70
2022/09/05 08:46:53;;;;;;;9.90;9.30;;;;;;;21.56;56.46;93653.44;5079275;28;20218;-70
2022/09/05 08:49:32;;;;;;;9.13;8.65;;;;;;;20.35;59.33;93654.84;5090089;28;20218;-70
2022/09/05 08:52:27;;;;;;;10.20;9.50;;;;;;;20.24;60.89;93642.19;5078285;28;20565;-70
2022/09/05 08:55:27;;;;;;;9.70;9.00;;;;;;;20.59;59.63;93654.34;5069495;28;20228;-70
2022/09/05 08:58:02;;;;;;;9.35;8.85;;;;;;;20.41;59.78;93663.41;5070186;28;20208;-71
2022/09/05 09:00:35;;;;;;;10.23;9.52;;;;;;;19.91;60.88;93664.91;5069604;28;20316;-70
2022/09/05 09:03:10;;;;;;;10.02;9.23;;;;;;;20.44;60.27;93660.91;5085211;28;20199;-70
2022/09/05 09:05:48;;;;;;;9.77;9.23;;;;;;;20.62;60.54;93659.78;5089460;28;20223;-69
2022/09/05 09:08:42;;;;;;;8.80;8.20;;;;;;;20.46;60.86;93650.78;5090343;28;20166;-70
2022/09/05 09:11:21;;;;;;;8.33;7.93;;;;;;;20.86;58.62;93659.28;5084882;28;20231;-71
2022/09/05 09:14:14;;;;;;;8.98;8.52;;;;;;;21.01;57.61;93658.84;5088836;28;20190;-70
2022/09/05 09:16:43;;;;;;;9.23;8.73;;;;;;;21.13;58.71;93664.25;5080270;28;20181;-71
2022/09/05 09:19:17;;;;;;;9.43;8.82;;;;;;;21.50;57.07;93662.69;5069544;28;20238;-70
2022/09/05 09:22:10;;;;;;;9.20;8.60;;;;;;;21.36;57.52;93649.63;5069936;28;20200;-70
2022/09/05 09:24:43;;;;;;;9.10;8.60;;;;;;;21.26;55.92;93639.34;5069303;28;20244;-71
2022/09/05 09:27:27;;;;;;;8.63;8.13;;;;;;;21.64;53.36;93655.28;5069989;28;20186;-71
2022/09/05 09:30:00;;;;;;;8.40;7.90;;;;;;;21.78;52.63;93643.34;5069375;28;20241;-70
2022/09/05 09:32:27;;;;;;;9.15;8.65;;;;;;;21.89;52.79;93662.38;5085357;28;20256;-71
2022/09/05 09:34:59;;;;;;;9.57;9.05;;;;;;;21.80;51.79;93666.97;5089399;28;20235;-70
2022/09/05 09:37:49;;;;;;;7.95;7.45;;;;;;;21.63;57.80;93645.75;5074227;28;20190;-72
2022/09/05 09:40:59;;;;;;;8.35;7.95;;;;;;;21.20;54.85;93658.47;5069288;28;20283;-71
2022/09/05 09:43:26;;;;;;;9.55;8.93;;;;;;;21.71;54.20;93637.72;5062114;28;20195;-71
2022/09/05 09:46:14;;;;;;;8.85;8.35;;;;;;;22.05;50.61;93648.16;5089230;28;20307;-71
2022/09/05 09:48:42;;;;;;;9.73;9.02;;;;;;;21.47;52.89;93658.81;5092437;28;20904;-71
2022/09/05 09:51:10;;;;;;;8.05;7.65;;;;;;;21.26;54.16;93659.84;5088637;28;20188;-71
2022/09/05 09:54:24;;;;;;;8.50;8.00;;;;;;;21.48;52.51;93649.72;5073186;28;20179;-71
2022/09/05 09:57:03;;;;;;;8.65;8.25;;;;;;;20.74;52.89;93640.59;5042166;28;20190;-70
2022/09/05 09:59:28;;;;;;;9.23;8.60;;;;;;;21.32;52.72;93640.75;5051071;28;20238;-71
2022/09/05 10:02:14;;;;;;;9.32;8.60;;;;;;;21.70;51.91;93640.69;5070360;28;20264;-70
2022/09/05 10:05:02;;;;;;;8.98;8.48;;;;;;;21.34;50.88;93638.53;5092984;28;20233;-72
2022/09/05 10:07:38;;;;;;;8.27;7.78;;;;;;;21.26;51.19;93630.63;5077172;28;20214;-70
2022/09/05 10:10:25;;;;;;;8.70;8.20;;;;;;;21.15;50.86;93624.09;5072750;28;20254;-71
2022/09/05 10:13:12;;;;;;;9.73;9.13;;;;;;;21.18;50.75;93628.78;5084661;28;20191;-70
2022/09/05 10:16:02;;;;;;;9.35;8.85;;;;;;;21.29;51.46;93630.75;5091208;28;20225;-71
2022/09/05 10:18:42;;;;;;;8.82;8.23;;;;;;;21.56;50.94;93630.31;5073403;28;20193;-69
2022/09/05 10:21:30;;;;;;;8.40;8.00;;;;;;;21.54;49.82;93621.09;5071908;28;20224;-70
2022/09/05 10:24:23;;;;;;;9.18;8.68;;;;;;;21.38;51.29;93622.75;5071695;28;20233;-69
2022/09/05 10:27:10;;;;;;;8.73;8.23;;;;;;;21.32;52.15;93618.72;5073285;28;20213;-70
2022/09/05 10:29:57;;;;;;;9.25;8.70;;;;;;;21.13;52.04;93610.34;5071469;28;20231;-70
2022/09/05 10:32:32;;;;;;;9.30;8.73;;;;;;;20.87;52.73;93585.75;5072972;28;20184;-70
2022/09/05 10:35:27;;;;;;;9.07;8.57;;;;;;;21.29;52.49;93598.09;5092275;28;20283;-71
2022/09/05 10:38:00;;;;;;;9.30;8.80;;;;;;;21.19;53.51;93611.72;5090564;28;20931;-69
2022/09/05 10:40:28;;;;;;;7.60;7.25;;;;;;;22.01;49.29;93602.06;5092439;28;20232;-69
2022/09/05 10:43:01;;;;;;;8.43;8.02;;;;;;;22.24;47.35;93600.59;5092319;28;20241;-70
2022/09/05 10:45:29;;;;;;;8.43;7.93;;;;;;;22.77;47.79;93599.06;5092443;28;20304;-68
2022/09/05 10:48:08;;;;;;;8.70;8.20;;;;;;;22.93;45.82;93592.75;5091719;28;20624;-70
2022/09/05 10:50:42;;;;;;;8.45;8.02;;;;;;;22.73;46.59;93547.56;5091923;28;20234;-70
2022/09/05 10:53:26;;;;;;;8.05;7.65;;;;;;;23.13;47.29;93599.88;5072773;28;20183;-70
2022/09/05 10:56:15;;;;;;;8.95;8.45;;;;;;;22.91;48.93;93599.53;5072170;28;20238;-69
2022/09/05 10:59:03;;;;;;;8.50;8.00;;;;;;;22.66;47.15;93597.91;5081719;28;20191;-70
2022/09/05 11:01:28;;;;;;;8.68;8.25;;;;;;;22.27;49.40;93597.28;5084754;28;20259;-71
2022/09/05 11:04:14;;;;;;;8.43;7.93;;;;;;;21.81;49.79;93597.50;5071727;28;20223;-69
2022/09/05 11:07:34;;;;;;;8.63;8.10;;;;;;;21.65;49.09;93585.09;5072284;28;20198;-72
2022/09/05 11:10:16;;;;;;;9.32;8.73;;;;;;;21.60;49.69;93599.34;5029294;28;20239;-69
2022/09/05 11:12:53;;;;;;;8.27;7.88;;;;;;;21.43;49.78;93593.34;5089933;28;20187;-70
2022/09/05 11:15:43;;;;;;;8.98;8.52;;;;;;;21.68;49.59;93595.06;5091772;28;20288;-70
2022/09/05 11:18:17;;;;;;;8.70;8.20;;;;;;;22.09;49.30;93577.28;5072164;28;20254;-70
2022/09/05 11:20:45;;;;;;;8.80;8.40;;;;;;;22.34;48.99;93588.00;5071729;28;20230;-70
2022/09/05 11:23:19;;;;;;;8.90;8.40;;;;;;;22.41;47.55;93580.28;5072226;28;20179;-70
2022/09/05 11:25:50;;;;;;;9.55;8.95;;;;;;;22.29;47.47;93561.63;5071513;28;20219;-70
2022/09/05 11:28:26;;;;;;;8.57;8.07;;;;;;;22.71;47.34;93565.75;5072094;28;20202;-71
2022/09/05 11:30:55;;;;;;;8.43;7.93;;;;;;;22.96;47.00;93573.44;5073873;28;20319;-71
2022/09/05 11:33:27;;;;;;;8.32;7.93;;;;;;;23.17;46.88;93571.50;5090894;28;20191;-69
2022/09/05 11:35:56;;;;;;;9.50;8.90;;;;;;;22.57;45.96;93574.03;5089980;28;20309;-70
2022/09/05 11:38:36;;;;;;;8.15;7.75;;;;;;;22.76;45.49;93565.53;5091905;28;20252;-70
2022/09/05 11:41:39;;;;;;;8.55;8.15;;;;;;;22.33;48.22;93568.63;5087127;28;20219;-70
2022/09/05 11:44:07;;;;;;;9.02;8.52;;;;;;;22.35;49.29;93560.31;5090152;28;20227;-70
2022/09/05 11:46:43;;;;;;;8.68;8.25;;;;;;;22.33;48.43;93557.97;5091520;28;20194;-71
2022/09/05 11:49:31;;;;;;;8.35;7.75;;;;;;;22.27;49.32;93545.97;5091046;28;20283;-70
2022/09/05 11:52:05;;;;;;;8.88;8.27;;;;;;;22.12;50.78;93570.50;5090616;28;20193;-70
2022/09/05 11:54:50;;;;;;;8.98;8.38;;;;;;;22.09;50.89;93565.84;5083772;28;20221;-71
2022/09/05 11:57:34;;;;;;;8.85;8.27;;;;;;;22.20;50.99;93556.34;5085639;28;20271;-71
2022/09/05 12:00:09;;;;;;;8.93;8.32;;;;;;;22.01;50.47;93556.84;5089969;28;20233;-70
2022/09/05 12:02:35;;;;;;;8.80;8.23;;;;;;;22.29;49.89;93557.06;5074401;28;20186;-70
2022/09/05 12:05:10;;;;;;;9.07;8.57;;;;;;;22.51;49.54;93554.06;5069519;28;20298;-70
2022/09/05 12:07:56;;;;;;;9.13;8.52;;;;;;;23.07;46.80;93555.13;5087880;28;20181;-70
2022/09/05 12:10:38;;;;;;;9.35;8.75;;;;;;;22.74;46.93;93547.22;5090087;28;20226;-70
2022/09/05 12:13:30;;;;;;;9.50;8.90;;;;;;;22.94;46.44;93551.69;5084043;28;20197;-70
2022/09/05 12:15:58;;;;;;;8.88;8.25;;;;;;;22.72;46.52;93541.47;5087729;28;20255;-70
2022/09/05 12:18:52;;;;;;;8.70;8.20;;;;;;;22.59;47.09;93545.22;5069933;28;20185;-70
2022/09/05 12:21:18;;;;;;;8.18;7.75;;;;;;;22.23;46.61;93545.84;5070836;28;20227;-70
2022/09/05 12:24:34;;;;;;;8.65;8.25;;;;;;;22.15;47.44;93535.28;5070933;28;20175;-69
2022/09/05 12:27:14;;;;;;;9.68;9.07;;;;;;;21.91;48.75;93545.81;5028338;28;20184;-71